DETNC EDDN-EDFE
Flight info
| Callsign | DETNC |
|---|---|
| Flight time | 1h 8m |
| Altitude | |
| Route | |
| Aircraft | P28A |
Departure
| Time | 2026-04-29 16:05 |
|---|---|
| Airport | Nuremberg Airport (EDDN) |
Arrival
| Time | 2026-04-29 17:14 |
|---|---|
| Airport | Frankfurt-Egelsbach Airport (EDFE) |
| Time | Latitude | Longitude | Altitude | Speed | Heading |
|---|---|---|---|---|---|
| 2026-04-29 15:58 | 49.49512 | 11.06942 | 1032 ft | 13 kts | 20° |
| 2026-04-29 15:58 | 49.49517 | 11.07047 | 1033 ft | 11 kts | 99° |
| 2026-04-29 15:59 | 49.49507 | 11.07176 | 1034 ft | 12 kts | 73° |
| 2026-04-29 15:59 | 49.49571 | 11.07207 | 1034 ft | 9 kts | 8° |
| 2026-04-29 15:59 | 49.49627 | 11.07219 | 1034 ft | 9 kts | 9° |
| 2026-04-29 15:59 | 49.49702 | 11.07233 | 1034 ft | 13 kts | 351° |
| 2026-04-29 16:00 | 49.49754 | 11.07102 | 1033 ft | 17 kts | 306° |
| 2026-04-29 16:00 | 49.49843 | 11.07036 | 1032 ft | 3 kts | 338° |
| 2026-04-29 16:00 | 49.49844 | 11.07035 | 1032 ft | 0 kts | 338° |
| 2026-04-29 16:03 | 49.49848 | 11.07033 | 1032 ft | 4 kts | 336° |
| 2026-04-29 16:03 | 49.49912 | 11.07012 | 1031 ft | 14 kts | 6° |
| 2026-04-29 16:04 | 49.49943 | 11.07065 | 1032 ft | 0 kts | 98° |
| 2026-04-29 16:04 | 49.49940 | 11.07096 | 1032 ft | 17 kts | 98° |
| 2026-04-29 16:05 | 49.49892 | 11.07561 | 1049 ft | 65 kts | 89° |
| 2026-04-29 16:05 | 49.49816 | 11.08313 | 1261 ft | 70 kts | 91° |
| 2026-04-29 16:05 | 49.49742 | 11.09028 | 1514 ft | 66 kts | 90° |
| 2026-04-29 16:05 | 49.49726 | 11.09697 | 1853 ft | 62 kts | 75° |
| 2026-04-29 16:06 | 49.50063 | 11.10114 | 2170 ft | 70 kts | 22° |
| 2026-04-29 16:06 | 49.50546 | 11.10100 | 2431 ft | 79 kts | 353° |
| 2026-04-29 16:06 | 49.50939 | 11.09397 | 2646 ft | 98 kts | 290° |
| 2026-04-29 16:06 | 49.50930 | 11.08259 | 2749 ft | 113 kts | 269° |
| 2026-04-29 16:07 | 49.50935 | 11.07086 | 2951 ft | 108 kts | 279° |
| 2026-04-29 16:07 | 49.51001 | 11.06280 | 3003 ft | 115 kts | 284° |
| 2026-04-29 16:07 | 49.51399 | 11.04776 | 3115 ft | 108 kts | 321° |
| 2026-04-29 16:07 | 49.52041 | 11.04046 | 3002 ft | 119 kts | 334° |
| 2026-04-29 16:08 | 49.52727 | 11.03364 | 2971 ft | 117 kts | 335° |
| 2026-04-29 16:08 | 49.53393 | 11.02700 | 3002 ft | 112 kts | 335° |
| 2026-04-29 16:08 | 49.54044 | 11.02046 | 2930 ft | 115 kts | 335° |
| 2026-04-29 16:08 | 49.54694 | 11.01351 | 2993 ft | 111 kts | 332° |
| 2026-04-29 16:09 | 49.55306 | 11.00618 | 3024 ft | 111 kts | 328° |
| 2026-04-29 16:09 | 49.55891 | 10.99836 | 3019 ft | 116 kts | 326° |
| 2026-04-29 16:09 | 49.56497 | 10.98994 | 2980 ft | 118 kts | 326° |
| 2026-04-29 16:09 | 49.57135 | 10.98195 | 2946 ft | 117 kts | 328° |
| 2026-04-29 16:10 | 49.57743 | 10.97378 | 2923 ft | 114 kts | 327° |
| 2026-04-29 16:10 | 49.58318 | 10.96589 | 2954 ft | 112 kts | 324° |
| 2026-04-29 16:10 | 49.58884 | 10.95744 | 2970 ft | 112 kts | 324° |
| 2026-04-29 16:10 | 49.59450 | 10.94870 | 2962 ft | 117 kts | 322° |
| 2026-04-29 16:11 | 49.59910 | 10.93819 | 2978 ft | 121 kts | 299° |
| 2026-04-29 16:11 | 49.60144 | 10.92562 | 2976 ft | 127 kts | 291° |
| 2026-04-29 16:11 | 49.60381 | 10.91207 | 3016 ft | 130 kts | 290° |
| 2026-04-29 16:11 | 49.60571 | 10.90020 | 3417 ft | 109 kts | 290° |
| 2026-04-29 16:12 | 49.60784 | 10.88791 | 3433 ft | 123 kts | 289° |
| 2026-04-29 16:12 | 49.60932 | 10.87920 | 3414 ft | 126 kts | 291° |
| 2026-04-29 16:12 | 49.61217 | 10.86213 | 3405 ft | 123 kts | 289° |
| 2026-04-29 16:12 | 49.61427 | 10.84952 | 3406 ft | 119 kts | 291° |
| 2026-04-29 16:13 | 49.61632 | 10.83726 | 3405 ft | 117 kts | 292° |
| 2026-04-29 16:13 | 49.61841 | 10.82496 | 3435 ft | 122 kts | 290° |
| 2026-04-29 16:13 | 49.62062 | 10.81197 | 3413 ft | 127 kts | 290° |
| 2026-04-29 16:13 | 49.62275 | 10.79876 | 3426 ft | 129 kts | 289° |
| 2026-04-29 16:14 | 49.62514 | 10.78521 | 3406 ft | 130 kts | 291° |
| 2026-04-29 16:14 | 49.62724 | 10.77198 | 3410 ft | 124 kts | 289° |
| 2026-04-29 16:14 | 49.62930 | 10.75940 | 3406 ft | 120 kts | 290° |
| 2026-04-29 16:14 | 49.63136 | 10.74713 | 3405 ft | 116 kts | 290° |
| 2026-04-29 16:15 | 49.63343 | 10.73500 | 3421 ft | 120 kts | 291° |
| 2026-04-29 16:15 | 49.63549 | 10.72260 | 3417 ft | 120 kts | 290° |
| 2026-04-29 16:15 | 49.63755 | 10.70990 | 3414 ft | 122 kts | 290° |
| 2026-04-29 16:15 | 49.63901 | 10.70134 | 3405 ft | 125 kts | 290° |
| 2026-04-29 16:16 | 49.64179 | 10.68444 | 3418 ft | 123 kts | 288° |
| 2026-04-29 16:16 | 49.64320 | 10.67578 | 3403 ft | 124 kts | 290° |
| 2026-04-29 16:16 | 49.64534 | 10.66310 | 3400 ft | 120 kts | 290° |
| 2026-04-29 16:16 | 49.64742 | 10.65074 | 3395 ft | 118 kts | 290° |
| 2026-04-29 16:17 | 49.65018 | 10.63408 | 3398 ft | 120 kts | 290° |
| 2026-04-29 16:17 | 49.65156 | 10.62584 | 3421 ft | 120 kts | 290° |
| 2026-04-29 16:17 | 49.65375 | 10.61297 | 3405 ft | 126 kts | 288° |
| 2026-04-29 16:17 | 49.65571 | 10.59989 | 3399 ft | 122 kts | 291° |
| 2026-04-29 16:18 | 49.65787 | 10.58738 | 3391 ft | 118 kts | 292° |
| 2026-04-29 16:18 | 49.65989 | 10.57517 | 3407 ft | 122 kts | 291° |
| 2026-04-29 16:18 | 49.66194 | 10.56269 | 3409 ft | 118 kts | 289° |
| 2026-04-29 16:18 | 49.66398 | 10.55031 | 3421 ft | 121 kts | 291° |
| 2026-04-29 16:19 | 49.66630 | 10.53744 | 3412 ft | 129 kts | 290° |
| 2026-04-29 16:19 | 49.66835 | 10.52398 | 3393 ft | 129 kts | 288° |
| 2026-04-29 16:19 | 49.67041 | 10.51098 | 3397 ft | 121 kts | 291° |
| 2026-04-29 16:19 | 49.67248 | 10.49817 | 3395 ft | 122 kts | 290° |
| 2026-04-29 16:20 | 49.67467 | 10.48567 | 3391 ft | 122 kts | 290° |
| 2026-04-29 16:20 | 49.67681 | 10.47281 | 3404 ft | 127 kts | 290° |
| 2026-04-29 16:20 | 49.67875 | 10.46013 | 3397 ft | 119 kts | 288° |
| 2026-04-29 16:20 | 49.68076 | 10.44762 | 3402 ft | 123 kts | 289° |
| 2026-04-29 16:21 | 49.68286 | 10.43507 | 3401 ft | 119 kts | 288° |
| 2026-04-29 16:21 | 49.68503 | 10.42240 | 3399 ft | 123 kts | 289° |
| 2026-04-29 16:21 | 49.68705 | 10.40975 | 3411 ft | 125 kts | 290° |
| 2026-04-29 16:21 | 49.68907 | 10.39691 | 3397 ft | 120 kts | 289° |
| 2026-04-29 16:22 | 49.69118 | 10.38455 | 3412 ft | 119 kts | 288° |
| 2026-04-29 16:22 | 49.69321 | 10.37196 | 3392 ft | 122 kts | 290° |
| 2026-04-29 16:22 | 49.69516 | 10.36000 | 3661 ft | 107 kts | 287° |
| 2026-04-29 16:22 | 49.69709 | 10.34803 | 3765 ft | 123 kts | 288° |
| 2026-04-29 16:23 | 49.69901 | 10.33622 | 4232 ft | 106 kts | 288° |
| 2026-04-29 16:23 | 49.70092 | 10.32445 | 4320 ft | 118 kts | 288° |
| 2026-04-29 16:23 | 49.70272 | 10.31272 | 4535 ft | 110 kts | 290° |
| 2026-04-29 16:23 | 49.70481 | 10.30075 | 4606 ft | 118 kts | 288° |
| 2026-04-29 16:24 | 49.70669 | 10.28888 | 4886 ft | 107 kts | 288° |
| 2026-04-29 16:24 | 49.70854 | 10.27736 | 4987 ft | 115 kts | 288° |
| 2026-04-29 16:24 | 49.71039 | 10.26590 | 5264 ft | 106 kts | 289° |
| 2026-04-29 16:24 | 49.71226 | 10.25457 | 5377 ft | 112 kts | 289° |
| 2026-04-29 16:25 | 49.71406 | 10.24317 | 5562 ft | 110 kts | 287° |
| 2026-04-29 16:25 | 49.71597 | 10.23154 | 5729 ft | 110 kts | 288° |
| 2026-04-29 16:25 | 49.71785 | 10.22016 | 5893 ft | 112 kts | 289° |
| 2026-04-29 16:25 | 49.71969 | 10.20872 | 6078 ft | 108 kts | 288° |
| 2026-04-29 16:26 | 49.72156 | 10.19710 | 6185 ft | 113 kts | 287° |
| 2026-04-29 16:26 | 49.72333 | 10.18588 | 6411 ft | 108 kts | 287° |
| 2026-04-29 16:26 | 49.72517 | 10.17404 | 6460 ft | 116 kts | 284° |
| 2026-04-29 16:26 | 49.72717 | 10.16181 | 6515 ft | 121 kts | 288° |
| 2026-04-29 16:27 | 49.72934 | 10.14923 | 6515 ft | 122 kts | 286° |
| 2026-04-29 16:27 | 49.73135 | 10.13649 | 6507 ft | 122 kts | 286° |
| 2026-04-29 16:27 | 49.73333 | 10.12388 | 6505 ft | 120 kts | 285° |
| 2026-04-29 16:27 | 49.73528 | 10.11135 | 6501 ft | 119 kts | 286° |
| 2026-04-29 16:28 | 49.73720 | 10.09914 | 6508 ft | 118 kts | 285° |
| 2026-04-29 16:28 | 49.73918 | 10.08670 | 6506 ft | 119 kts | 286° |
| 2026-04-29 16:28 | 49.74123 | 10.07423 | 6508 ft | 120 kts | 286° |
| 2026-04-29 16:28 | 49.74321 | 10.06174 | 6507 ft | 118 kts | 285° |
| 2026-04-29 16:29 | 49.74517 | 10.04956 | 6510 ft | 117 kts | 286° |
| 2026-04-29 16:29 | 49.74719 | 10.03724 | 6500 ft | 117 kts | 286° |
| 2026-04-29 16:29 | 49.74907 | 10.02498 | 6504 ft | 118 kts | 286° |
| 2026-04-29 16:29 | 49.75105 | 10.01284 | 6502 ft | 117 kts | 285° |
| 2026-04-29 16:30 | 49.75301 | 10.00055 | 6501 ft | 117 kts | 286° |
| 2026-04-29 16:30 | 49.75495 | 9.98833 | 6503 ft | 115 kts | 285° |
| 2026-04-29 16:30 | 49.75681 | 9.97654 | 6499 ft | 114 kts | 286° |
| 2026-04-29 16:30 | 49.75877 | 9.96441 | 6504 ft | 117 kts | 285° |
| 2026-04-29 16:31 | 49.76072 | 9.95214 | 6502 ft | 117 kts | 285° |
| 2026-04-29 16:31 | 49.76265 | 9.93994 | 6507 ft | 118 kts | 285° |
| 2026-04-29 16:31 | 49.76459 | 9.92756 | 6508 ft | 118 kts | 285° |
| 2026-04-29 16:31 | 49.76656 | 9.91521 | 6507 ft | 118 kts | 285° |
| 2026-04-29 16:32 | 49.76852 | 9.90304 | 6505 ft | 118 kts | 285° |
| 2026-04-29 16:32 | 49.77047 | 9.89073 | 6501 ft | 118 kts | 285° |
| 2026-04-29 16:32 | 49.77246 | 9.87834 | 6512 ft | 120 kts | 286° |
| 2026-04-29 16:32 | 49.77447 | 9.86581 | 6507 ft | 122 kts | 285° |
| 2026-04-29 16:33 | 49.77846 | 9.84040 | 6513 ft | 121 kts | 285° |
| 2026-04-29 16:33 | 49.78048 | 9.82778 | 6514 ft | 121 kts | 286° |
| 2026-04-29 16:33 | 49.78241 | 9.81529 | 6509 ft | 121 kts | 285° |
| 2026-04-29 16:34 | 49.78443 | 9.80277 | 6419 ft | 121 kts | 287° |
| 2026-04-29 16:34 | 49.78644 | 9.79004 | 6350 ft | 120 kts | 285° |
| 2026-04-29 16:34 | 49.78835 | 9.77759 | 6238 ft | 120 kts | 286° |
| 2026-04-29 16:34 | 49.79033 | 9.76513 | 6103 ft | 120 kts | 287° |
| 2026-04-29 16:35 | 49.79229 | 9.75265 | 6017 ft | 119 kts | 286° |
| 2026-04-29 16:35 | 49.79425 | 9.74015 | 5896 ft | 118 kts | 286° |
| 2026-04-29 16:35 | 49.79618 | 9.72771 | 5795 ft | 118 kts | 286° |
| 2026-04-29 16:35 | 49.79812 | 9.71543 | 5695 ft | 120 kts | 287° |
| 2026-04-29 16:36 | 49.80011 | 9.70298 | 5678 ft | 117 kts | 287° |
| 2026-04-29 16:36 | 49.80207 | 9.69061 | 5559 ft | 120 kts | 287° |
| 2026-04-29 16:36 | 49.80394 | 9.67819 | 5554 ft | 115 kts | 286° |
| 2026-04-29 16:36 | 49.80582 | 9.66608 | 5496 ft | 119 kts | 287° |
| 2026-04-29 16:37 | 49.80774 | 9.65379 | 5472 ft | 116 kts | 287° |
| 2026-04-29 16:37 | 49.80969 | 9.64147 | 5390 ft | 118 kts | 288° |
| 2026-04-29 16:37 | 49.81159 | 9.62929 | 5320 ft | 117 kts | 287° |
| 2026-04-29 16:37 | 49.81287 | 9.62109 | 5258 ft | 118 kts | 287° |
| 2026-04-29 16:38 | 49.81539 | 9.60488 | 5166 ft | 118 kts | 288° |
| 2026-04-29 16:38 | 49.81724 | 9.59265 | 5095 ft | 115 kts | 288° |
| 2026-04-29 16:38 | 49.81919 | 9.58040 | 5006 ft | 117 kts | 289° |
| 2026-04-29 16:38 | 49.82105 | 9.56846 | 4977 ft | 116 kts | 287° |
| 2026-04-29 16:39 | 49.82293 | 9.55622 | 4901 ft | 116 kts | 288° |
| 2026-04-29 16:39 | 49.82480 | 9.54414 | 4857 ft | 115 kts | 288° |
| 2026-04-29 16:39 | 49.82667 | 9.53212 | 4813 ft | 115 kts | 288° |
| 2026-04-29 16:39 | 49.82857 | 9.51997 | 4771 ft | 116 kts | 287° |
| 2026-04-29 16:40 | 49.83042 | 9.50795 | 4679 ft | 115 kts | 289° |
| 2026-04-29 16:40 | 49.83229 | 9.49581 | 4562 ft | 116 kts | 287° |
| 2026-04-29 16:40 | 49.83419 | 9.48363 | 4419 ft | 118 kts | 288° |
| 2026-04-29 16:40 | 49.83607 | 9.47142 | 4432 ft | 115 kts | 288° |
| 2026-04-29 16:41 | 49.83792 | 9.45942 | 4470 ft | 116 kts | 287° |
| 2026-04-29 16:41 | 49.83975 | 9.44730 | 4532 ft | 113 kts | 288° |
| 2026-04-29 16:41 | 49.84164 | 9.43532 | 4432 ft | 118 kts | 287° |
| 2026-04-29 16:41 | 49.84350 | 9.42313 | 4411 ft | 114 kts | 288° |
| 2026-04-29 16:42 | 49.84533 | 9.41118 | 4356 ft | 117 kts | 286° |
| 2026-04-29 16:42 | 49.84719 | 9.39910 | 4312 ft | 113 kts | 286° |
| 2026-04-29 16:42 | 49.84903 | 9.38710 | 4203 ft | 117 kts | 286° |
| 2026-04-29 16:42 | 49.85087 | 9.37509 | 4170 ft | 113 kts | 287° |
| 2026-04-29 16:43 | 49.85274 | 9.36300 | 4089 ft | 117 kts | 287° |
| 2026-04-29 16:43 | 49.85462 | 9.35072 | 4093 ft | 119 kts | 285° |
| 2026-04-29 16:43 | 49.85638 | 9.33838 | 4124 ft | 115 kts | 285° |
| 2026-04-29 16:43 | 49.85831 | 9.32662 | 4224 ft | 113 kts | 288° |
| 2026-04-29 16:44 | 49.86009 | 9.31471 | 4222 ft | 114 kts | 286° |
| 2026-04-29 16:44 | 49.86202 | 9.30245 | 4168 ft | 118 kts | 286° |
| 2026-04-29 16:44 | 49.86383 | 9.29046 | 4196 ft | 114 kts | 287° |
| 2026-04-29 16:44 | 49.86568 | 9.27839 | 4171 ft | 114 kts | 287° |
| 2026-04-29 16:45 | 49.86745 | 9.26662 | 4127 ft | 114 kts | 287° |
| 2026-04-29 16:45 | 49.86927 | 9.25470 | 4059 ft | 112 kts | 287° |
| 2026-04-29 16:45 | 49.87111 | 9.24274 | 3944 ft | 115 kts | 287° |
| 2026-04-29 16:45 | 49.87288 | 9.23095 | 3939 ft | 114 kts | 284° |
| 2026-04-29 16:46 | 49.87465 | 9.21917 | 3958 ft | 109 kts | 287° |
| 2026-04-29 16:46 | 49.87637 | 9.20778 | 3640 ft | 115 kts | 288° |
| 2026-04-29 16:46 | 49.87842 | 9.19602 | 3428 ft | 107 kts | 293° |
| 2026-04-29 16:46 | 49.88308 | 9.18677 | 3019 ft | 113 kts | 329° |
| 2026-04-29 16:47 | 49.88991 | 9.18349 | 2867 ft | 99 kts | 358° |
| 2026-04-29 16:47 | 49.89655 | 9.18030 | 2783 ft | 97 kts | 344° |
| 2026-04-29 16:47 | 49.90292 | 9.17732 | 2583 ft | 97 kts | 348° |
| 2026-04-29 16:47 | 49.90962 | 9.17426 | 2318 ft | 102 kts | 347° |
| 2026-04-29 16:48 | 49.91633 | 9.17122 | 2147 ft | 100 kts | 349° |
| 2026-04-29 16:48 | 49.92267 | 9.16624 | 1894 ft | 106 kts | 332° |
| 2026-04-29 16:48 | 49.92846 | 9.16047 | 1730 ft | 96 kts | 333° |
| 2026-04-29 16:48 | 49.93443 | 9.15458 | 1485 ft | 100 kts | 333° |
| 2026-04-29 16:49 | 49.94005 | 9.14916 | 1505 ft | 92 kts | 333° |
| 2026-04-29 16:49 | 49.94520 | 9.14382 | 1502 ft | 89 kts | 323° |
| 2026-04-29 16:49 | 49.94818 | 9.13520 | 1510 ft | 96 kts | 298° |
| 2026-04-29 16:49 | 49.95103 | 9.12589 | 1514 ft | 95 kts | 300° |
| 2026-04-29 16:50 | 49.95401 | 9.11632 | 1532 ft | 99 kts | 303° |
| 2026-04-29 16:50 | 49.95725 | 9.10699 | 1543 ft | 101 kts | 301° |
| 2026-04-29 16:50 | 49.96015 | 9.09680 | 1513 ft | 103 kts | 297° |
| 2026-04-29 16:50 | 49.96194 | 9.08653 | 1440 ft | 101 kts | 276° |
| 2026-04-29 16:51 | 49.96006 | 9.07647 | 1451 ft | 94 kts | 255° |
| 2026-04-29 16:51 | 49.95816 | 9.06678 | 1424 ft | 95 kts | 255° |
| 2026-04-29 16:51 | 49.95642 | 9.05691 | 1431 ft | 94 kts | 260° |
| 2026-04-29 16:51 | 49.95519 | 9.04719 | 1386 ft | 92 kts | 264° |
| 2026-04-29 16:52 | 49.95384 | 9.03755 | 1378 ft | 92 kts | 260° |
| 2026-04-29 16:52 | 49.95013 | 9.02972 | 1315 ft | 91 kts | 200° |
| 2026-04-29 16:52 | 49.94435 | 9.03139 | 1181 ft | 79 kts | 144° |
| 2026-04-29 16:52 | 49.94050 | 9.03665 | 1072 ft | 68 kts | 124° |
| 2026-04-29 16:53 | 49.93737 | 9.04192 | 913 ft | 66 kts | 118° |
| 2026-04-29 16:53 | 49.93671 | 9.04813 | 709 ft | 56 kts | 69° |
| 2026-04-29 16:53 | 49.93770 | 9.05376 | 549 ft | 54 kts | 72° |
| 2026-04-29 16:53 | 49.93844 | 9.05932 | 436 ft | 49 kts | 74° |
| 2026-04-29 16:54 | 49.93913 | 9.06462 | 477 ft | 56 kts | 74° |
| 2026-04-29 16:54 | 49.93973 | 9.07034 | 634 ft | 53 kts | 79° |
| 2026-04-29 16:54 | 49.94049 | 9.07623 | 771 ft | 56 kts | 81° |
| 2026-04-29 16:54 | 49.94153 | 9.08189 | 959 ft | 56 kts | 70° |
| 2026-04-29 16:55 | 49.94269 | 9.08843 | 1159 ft | 69 kts | 66° |
| 2026-04-29 16:55 | 49.94721 | 9.09212 | 1334 ft | 87 kts | 354° |
| 2026-04-29 16:55 | 49.95266 | 9.08776 | 1421 ft | 89 kts | 342° |
| 2026-04-29 16:55 | 49.95843 | 9.08530 | 1426 ft | 85 kts | 344° |
| 2026-04-29 16:56 | 49.96083 | 9.07771 | 1410 ft | 92 kts | 251° |
| 2026-04-29 16:56 | 49.95917 | 9.06804 | 1362 ft | 93 kts | 262° |
| 2026-04-29 16:56 | 49.95774 | 9.05802 | 1358 ft | 95 kts | 258° |
| 2026-04-29 16:56 | 49.95620 | 9.04820 | 1302 ft | 92 kts | 258° |
| 2026-04-29 16:57 | 49.95397 | 9.03946 | 1210 ft | 88 kts | 231° |
| 2026-04-29 16:57 | 49.94874 | 9.03637 | 1052 ft | 79 kts | 163° |
| 2026-04-29 16:57 | 49.94379 | 9.03885 | 936 ft | 74 kts | 151° |
| 2026-04-29 16:57 | 49.93930 | 9.04159 | 840 ft | 66 kts | 146° |
| 2026-04-29 16:58 | 49.93727 | 9.04706 | 709 ft | 57 kts | 85° |
| 2026-04-29 16:58 | 49.93768 | 9.05309 | 588 ft | 55 kts | 75° |
| 2026-04-29 16:58 | 49.93840 | 9.05894 | 438 ft | 51 kts | 76° |
| 2026-04-29 16:58 | 49.93909 | 9.06410 | 442 ft | 61 kts | 74° |
| 2026-04-29 16:59 | 49.93995 | 9.07059 | 691 ft | 61 kts | 76° |
| 2026-04-29 16:59 | 49.94062 | 9.07706 | 967 ft | 60 kts | 79° |
| 2026-04-29 16:59 | 49.94128 | 9.08357 | 1280 ft | 63 kts | 73° |
| 2026-04-29 16:59 | 49.94278 | 9.09064 | 1407 ft | 80 kts | 56° |
| 2026-04-29 17:00 | 49.94795 | 9.09203 | 1441 ft | 89 kts | 332° |
| 2026-04-29 17:00 | 49.95332 | 9.08660 | 1447 ft | 93 kts | 336° |
| 2026-04-29 17:00 | 49.95930 | 9.08337 | 1468 ft | 89 kts | 344° |
| 2026-04-29 17:00 | 49.96187 | 9.07573 | 1424 ft | 101 kts | 252° |
| 2026-04-29 17:01 | 49.95879 | 9.06592 | 1336 ft | 99 kts | 251° |
| 2026-04-29 17:01 | 49.95704 | 9.05584 | 1356 ft | 95 kts | 258° |
| 2026-04-29 17:01 | 49.95531 | 9.04634 | 1302 ft | 89 kts | 257° |
| 2026-04-29 17:01 | 49.95356 | 9.03751 | 1240 ft | 85 kts | 236° |
| 2026-04-29 17:02 | 49.94846 | 9.03681 | 1148 ft | 76 kts | 148° |
| 2026-04-29 17:02 | 49.94392 | 9.03955 | 1053 ft | 65 kts | 148° |
| 2026-04-29 17:02 | 49.93983 | 9.04240 | 886 ft | 63 kts | 140° |
| 2026-04-29 17:02 | 49.93745 | 9.04732 | 735 ft | 54 kts | 96° |
| 2026-04-29 17:03 | 49.93764 | 9.05309 | 582 ft | 52 kts | 73° |
| 2026-04-29 17:03 | 49.93838 | 9.05873 | 441 ft | 51 kts | 75° |
| 2026-04-29 17:03 | 49.93903 | 9.06350 | 441 ft | 55 kts | 71° |
| 2026-04-29 17:03 | 49.94087 | 9.06900 | 614 ft | 68 kts | 18° |
| 2026-04-29 17:04 | 49.94406 | 9.06265 | 883 ft | 74 kts | 291° |
| 2026-04-29 17:04 | 49.94529 | 9.05515 | 1207 ft | 70 kts | 279° |
| 2026-04-29 17:04 | 49.94535 | 9.04707 | 1429 ft | 82 kts | 274° |
| 2026-04-29 17:04 | 49.94594 | 9.03799 | 1648 ft | 91 kts | 279° |
| 2026-04-29 17:05 | 49.94660 | 9.02733 | 1541 ft | 105 kts | 280° |
| 2026-04-29 17:05 | 49.94743 | 9.01565 | 1494 ft | 111 kts | 279° |
| 2026-04-29 17:05 | 49.94814 | 9.00367 | 1477 ft | 110 kts | 278° |
| 2026-04-29 17:05 | 49.94925 | 8.99178 | 1407 ft | 112 kts | 283° |
| 2026-04-29 17:06 | 49.94925 | 8.97966 | 1389 ft | 115 kts | 266° |
| 2026-04-29 17:06 | 49.94926 | 8.96744 | 1356 ft | 112 kts | 298° |
| 2026-04-29 17:06 | 49.95333 | 8.95807 | 1448 ft | 102 kts | 303° |
| 2026-04-29 17:06 | 49.95663 | 8.94814 | 1442 ft | 107 kts | 301° |
| 2026-04-29 17:07 | 49.96001 | 8.93769 | 1407 ft | 112 kts | 298° |
| 2026-04-29 17:07 | 49.96206 | 8.93011 | 1369 ft | 116 kts | 295° |
| 2026-04-29 17:07 | 49.96557 | 8.91451 | 1387 ft | 112 kts | 291° |
| 2026-04-29 17:07 | 49.96753 | 8.90282 | 1362 ft | 113 kts | 285° |
| 2026-04-29 17:08 | 49.96886 | 8.89090 | 1380 ft | 112 kts | 282° |
| 2026-04-29 17:08 | 49.96895 | 8.87897 | 1276 ft | 119 kts | 240° |
| 2026-04-29 17:08 | 49.96318 | 8.87025 | 1343 ft | 111 kts | 223° |
| 2026-04-29 17:08 | 49.95854 | 8.86121 | 1361 ft | 111 kts | 238° |
| 2026-04-29 17:09 | 49.95446 | 8.85053 | 1320 ft | 117 kts | 243° |
| 2026-04-29 17:09 | 49.95194 | 8.83873 | 1357 ft | 112 kts | 271° |
| 2026-04-29 17:09 | 49.95284 | 8.82682 | 1365 ft | 113 kts | 281° |
| 2026-04-29 17:09 | 49.95345 | 8.81476 | 1417 ft | 111 kts | 279° |
| 2026-04-29 17:10 | 49.95436 | 8.80289 | 1381 ft | 113 kts | 282° |
| 2026-04-29 17:10 | 49.95576 | 8.79079 | 1384 ft | 114 kts | 285° |
| 2026-04-29 17:10 | 49.95727 | 8.77896 | 1426 ft | 110 kts | 286° |
| 2026-04-29 17:10 | 49.95855 | 8.76729 | 1358 ft | 111 kts | 280° |
| 2026-04-29 17:11 | 49.95917 | 8.75585 | 1365 ft | 103 kts | 278° |
| 2026-04-29 17:11 | 49.95974 | 8.74479 | 1354 ft | 104 kts | 278° |
| 2026-04-29 17:11 | 49.96018 | 8.73397 | 1383 ft | 100 kts | 277° |
| 2026-04-29 17:11 | 49.96040 | 8.72317 | 1362 ft | 100 kts | 276° |
| 2026-04-29 17:12 | 49.96121 | 8.71229 | 1279 ft | 102 kts | 283° |
| 2026-04-29 17:12 | 49.96235 | 8.70181 | 1245 ft | 88 kts | 285° |
| 2026-04-29 17:12 | 49.96299 | 8.69314 | 1204 ft | 79 kts | 281° |
| 2026-04-29 17:12 | 49.96290 | 8.68748 | 1151 ft | 77 kts | 272° |
| 2026-04-29 17:13 | 49.96235 | 8.67684 | 1065 ft | 73 kts | 273° |
| 2026-04-29 17:13 | 49.96197 | 8.66904 | 889 ft | 73 kts | 272° |
| 2026-04-29 17:13 | 49.96168 | 8.66119 | 682 ft | 72 kts | 273° |
| 2026-04-29 17:13 | 49.96139 | 8.65356 | 510 ft | 70 kts | 285° |
| 2026-04-29 17:14 | 49.96100 | 8.64588 | 391 ft | 69 kts | 275° |
| 2026-04-29 17:14 | 49.96076 | 8.63980 | 388 ft | 44 kts | 265° |
| 2026-04-29 17:14 | 49.96104 | 8.63789 | 387 ft | 12 kts | 34° |
| 2026-04-29 17:14 | 49.96118 | 8.63807 | 387 ft | 0 kts | 40° |
| 2026-04-29 17:15 | 49.96123 | 8.63813 | 387 ft | 6 kts | 40° |
| 2026-04-29 17:15 | 49.96155 | 8.63922 | 387 ft | 16 kts | 87° |
| 2026-04-29 17:15 | 49.96163 | 8.64120 | 387 ft | 11 kts | 86° |
| 2026-04-29 17:15 | 49.96220 | 8.64130 | 387 ft | 14 kts | 324° |
| 2026-04-29 17:16 | 49.96288 | 8.64052 | 387 ft | 5 kts | 31° |
| 2026-04-29 17:16 | 49.96279 | 8.64078 | 387 ft | 0 kts | 142° |